Time,TemperatureF,DewpointF,PressureIn,WindDirection,WindDirectionDegrees,WindSpeedMPH,WindSpeedGustMPH,Humidity,HourlyPrecipIn,Conditions,Clouds,dailyrainin,SolarRadiationWatts/m^2,SoftwareType,DateUTC
2013-10-14 00:22:00,40.0,24.0,-100.00,East,87,0.0,7.0,52,0.00,,,0.00,0.000000,,2013-10-14 07:22:00,
2013-10-14 00:32:00,40.0,24.0,-100.00,East,87,0.0,7.0,52,0.00,,,0.00,0.000000,,2013-10-14 07:32:00,
2013-10-14 00:42:00,40.0,24.0,-100.00,East,87,0.0,7.0,52,0.00,,,0.00,0.000000,,2013-10-14 07:42:00,
2013-10-14 00:51:00,38.0,23.0,-100.00,East,97,1.0,6.0,54,0.00,,,0.00,0.000000,,2013-10-14 07:51:00,
2013-10-14 01:21:00,38.0,23.0,-100.00,East,97,1.0,6.0,54,0.00,,,0.00,0.000000,,2013-10-14 08:21:00,
2013-10-14 01:32:00,38.0,23.0,-100.00,East,97,1.0,6.0,54,0.00,,,0.00,0.000000,,2013-10-14 08:32:00,
2013-10-14 01:42:00,38.0,23.0,-100.00,East,97,1.0,6.0,54,0.00,,,0.00,0.000000,,2013-10-14 08:42:00,
2013-10-14 01:51:00,40.0,23.0,-100.00,ESE,107,1.0,10.0,51,0.00,,,0.00,0.000000,,2013-10-14 08:51:00,
2013-10-14 02:22:00,40.0,23.0,-100.00,ESE,107,1.0,10.0,51,0.00,,,0.00,0.000000,,2013-10-14 09:22:00,
2013-10-14 02:33:00,40.0,23.0,-100.00,ESE,107,1.0,10.0,51,0.00,,,0.00,0.000000,,2013-10-14 09:33:00,
2013-10-14 02:43:00,40.0,23.0,-100.00,ESE,107,1.0,10.0,51,0.00,,,0.00,0.000000,,2013-10-14 09:43:00,
2013-10-14 02:51:00,40.0,23.0,-100.00,ESE,106,1.0,7.0,50,0.00,,,-99.99,0.000000,,2013-10-14 09:51:00,
2013-10-14 03:23:00,40.0,23.0,-100.00,ESE,106,1.0,7.0,50,0.00,,,-99.99,0.000000,,2013-10-14 10:23:00,
2013-10-14 03:32:00,40.0,23.0,-100.00,ESE,106,1.0,7.0,50,0.00,,,-99.99,0.000000,,2013-10-14 10:32:00,
2013-10-14 03:42:00,40.0,23.0,-100.00,ESE,106,1.0,7.0,50,0.00,,,-99.99,0.000000,,2013-10-14 10:42:00,
2013-10-14 03:51:00,39.0,23.0,-100.00,East,95,0.0,7.0,52,0.00,,,0.00,0.000000,,2013-10-14 10:51:00,
2013-10-14 04:22:00,39.0,23.0,-100.00,East,95,0.0,7.0,52,0.00,,,0.00,0.000000,,2013-10-14 11:22:00,
2013-10-14 04:32:00,39.0,23.0,-100.00,East,95,0.0,7.0,52,0.00,,,0.00,0.000000,,2013-10-14 11:32:00,
2013-10-14 04:42:00,39.0,23.0,-100.00,East,95,0.0,7.0,52,0.00,,,0.00,0.000000,,2013-10-14 11:42:00,
2013-10-14 04:51:00,38.0,23.0,-100.00,ESE,106,0.0,6.0,55,0.00,,,0.00,0.000000,,2013-10-14 11:51:00,
2013-10-14 05:22:00,38.0,23.0,-100.00,ESE,106,0.0,6.0,55,0.00,,,0.00,0.000000,,2013-10-14 12:22:00,
2013-10-14 05:32:00,38.0,23.0,-100.00,ESE,106,0.0,6.0,55,0.00,,,0.00,0.000000,,2013-10-14 12:32:00,
2013-10-14 05:42:00,38.0,23.0,-100.00,ESE,106,0.0,6.0,55,0.00,,,0.00,0.000000,,2013-10-14 12:42:00,
2013-10-14 05:51:00,35.0,21.0,-100.00,ESE,118,1.0,7.0,57,0.00,,,0.00,0.000000,,2013-10-14 12:51:00,
2013-10-14 06:21:00,35.0,21.0,-100.00,ESE,118,1.0,7.0,57,0.00,,,0.00,0.000000,,2013-10-14 13:21:00,
2013-10-14 06:32:00,35.0,21.0,-100.00,ESE,118,1.0,7.0,57,0.00,,,0.00,0.000000,,2013-10-14 13:32:00,
2013-10-14 06:42:00,35.0,21.0,-100.00,ESE,118,1.0,7.0,57,0.00,,,0.00,0.000000,,2013-10-14 13:42:00,
2013-10-14 06:51:00,37.0,20.0,-100.00,NE,49,0.0,7.0,50,0.00,,,-99.99,0.000000,,2013-10-14 13:51:00,
2013-10-14 07:22:00,37.0,20.0,-100.00,NE,49,0.0,7.0,50,0.00,,,-99.99,0.000000,,2013-10-14 14:22:00,
2013-10-14 07:32:00,37.0,20.0,-100.00,NE,49,0.0,7.0,50,0.00,,,-99.99,0.000000,,2013-10-14 14:32:00,
2013-10-14 07:42:00,37.0,20.0,-100.00,NE,49,0.0,7.0,50,0.00,,,-99.99,0.000000,,2013-10-14 14:42:00,
2013-10-14 07:51:00,41.0,22.0,-100.00,East,91,0.0,5.0,46,0.00,,,0.00,19.000000,,2013-10-14 14:51:00,
2013-10-14 08:21:00,41.0,22.0,-100.00,East,91,0.0,5.0,46,0.00,,,0.00,19.000000,,2013-10-14 15:21:00,
2013-10-14 08:33:00,41.0,22.0,-100.00,East,91,0.0,5.0,46,0.00,,,0.00,19.000000,,2013-10-14 15:33:00,
2013-10-14 08:44:00,41.0,22.0,-100.00,East,91,0.0,5.0,46,0.00,,,0.00,19.000000,,2013-10-14 15:44:00,
2013-10-14 08:51:00,46.0,25.0,-100.00,NNE,32,0.0,4.0,43,0.00,,,0.00,215.000000,,2013-10-14 15:51:00,
2013-10-14 09:23:00,46.0,25.0,-100.00,NNE,32,0.0,4.0,43,0.00,,,0.00,215.000000,,2013-10-14 16:23:00,
2013-10-14 09:32:00,46.0,25.0,-100.00,NNE,32,0.0,4.0,43,0.00,,,0.00,215.000000,,2013-10-14 16:32:00,
2013-10-14 09:42:00,46.0,25.0,-100.00,NNE,32,0.0,4.0,43,0.00,,,0.00,215.000000,,2013-10-14 16:42:00,
2013-10-14 09:51:00,52.0,23.0,-100.00,NE,40,0.0,5.0,32,0.00,,,0.00,614.000000,,2013-10-14 16:51:00,
2013-10-14 10:22:00,52.0,23.0,-100.00,NE,40,0.0,5.0,32,0.00,,,0.00,614.000000,,2013-10-14 17:22:00,
2013-10-14 10:33:00,52.0,23.0,-100.00,NE,40,0.0,5.0,32,0.00,,,0.00,614.000000,,2013-10-14 17:33:00,
2013-10-14 10:42:00,52.0,23.0,-100.00,NE,40,0.0,5.0,32,0.00,,,0.00,614.000000,,2013-10-14 17:42:00,
2013-10-14 10:51:00,56.0,27.0,-100.00,ENE,77,1.0,6.0,32,0.00,,,0.00,853.000000,,2013-10-14 17:51:00,
2013-10-14 11:22:00,56.0,27.0,-100.00,ENE,77,1.0,6.0,32,0.00,,,0.00,853.000000,,2013-10-14 18:22:00,
2013-10-14 11:32:00,56.0,27.0,-100.00,ENE,77,1.0,6.0,32,0.00,,,0.00,853.000000,,2013-10-14 18:32:00,
2013-10-14 11:42:00,56.0,27.0,-100.00,ENE,77,1.0,6.0,32,0.00,,,0.00,853.000000,,2013-10-14 18:42:00,
2013-10-14 11:51:00,58.0,24.0,-100.00,South,187,0.0,6.0,27,0.00,,,0.00,1024.000000,,2013-10-14 18:51:00,
2013-10-14 12:21:00,58.0,24.0,-100.00,South,187,0.0,6.0,27,0.00,,,0.00,1024.000000,,2013-10-14 19:21:00,
2013-10-14 12:32:00,58.0,24.0,-100.00,South,187,0.0,6.0,27,0.00,,,0.00,1024.000000,,2013-10-14 19:32:00,
2013-10-14 12:42:00,58.0,24.0,-100.00,South,187,0.0,6.0,27,0.00,,,0.00,1024.000000,,2013-10-14 19:42:00,
2013-10-14 12:51:00,60.0,27.0,-100.00,SE,134,3.0,11.0,28,0.00,,,0.00,1109.000000,,2013-10-14 19:51:00,
2013-10-14 13:22:00,60.0,27.0,-100.00,SE,134,3.0,11.0,28,0.00,,,0.00,1109.000000,,2013-10-14 20:22:00,
2013-10-14 13:32:00,60.0,27.0,-100.00,SE,134,3.0,11.0,28,0.00,,,0.00,1109.000000,,2013-10-14 20:32:00,
2013-10-14 13:42:00,60.0,27.0,-100.00,SE,134,3.0,11.0,28,0.00,,,0.00,1109.000000,,2013-10-14 20:42:00,
2013-10-14 14:51:00,61.0,25.0,-100.00,East,98,1.0,8.0,25,-99.99,,,0.00,1006.000000,,2013-10-14 21:51:00,
2013-10-14 15:24:00,61.0,25.0,-100.00,East,98,1.0,8.0,25,-99.99,,,0.00,1006.000000,,2013-10-14 22:24:00,
2013-10-14 15:32:00,61.0,25.0,-100.00,East,98,1.0,8.0,25,-99.99,,,0.00,1006.000000,,2013-10-14 22:32:00,
2013-10-14 15:43:00,61.0,25.0,-100.00,East,98,1.0,8.0,25,-99.99,,,0.00,1006.000000,,2013-10-14 22:43:00,
2013-10-14 15:51:00,56.0,24.0,-100.00,SW,234,1.0,7.0,29,0.00,,,0.00,804.000000,,2013-10-14 22:51:00,
2013-10-14 16:22:00,56.0,24.0,-100.00,SW,234,1.0,7.0,29,0.00,,,0.00,804.000000,,2013-10-14 23:22:00,
2013-10-14 16:34:00,56.0,24.0,-100.00,SW,234,1.0,7.0,29,0.00,,,0.00,804.000000,,2013-10-14 23:34:00,
2013-10-14 16:42:00,56.0,24.0,-100.00,SW,234,1.0,7.0,29,0.00,,,0.00,804.000000,,2013-10-14 23:42:00,
2013-10-14 16:51:00,51.0,30.0,-100.00,SSE,164,0.0,6.0,44,0.00,,,0.00,78.000000,,2013-10-14 23:51:00,
2013-10-14 17:22:00,51.0,30.0,-100.00,SSE,164,0.0,6.0,44,0.00,,,0.00,78.000000,,2013-10-15 00:22:00,
2013-10-14 17:32:00,51.0,30.0,-100.00,SSE,164,0.0,6.0,44,0.00,,,0.00,78.000000,,2013-10-15 00:32:00,
2013-10-14 17:42:00,51.0,30.0,-100.00,SSE,164,0.0,6.0,44,0.00,,,0.00,78.000000,,2013-10-15 00:42:00,
2013-10-14 17:51:00,48.0,23.0,-100.00,SSE,156,2.0,4.0,37,0.00,,,0.00,76.000000,,2013-10-15 00:51:00,
2013-10-14 18:21:00,48.0,23.0,-100.00,SSE,156,2.0,4.0,37,0.00,,,0.00,76.000000,,2013-10-15 01:21:00,
2013-10-14 18:32:00,48.0,23.0,-100.00,SSE,156,2.0,4.0,37,0.00,,,0.00,76.000000,,2013-10-15 01:32:00,
2013-10-14 18:42:00,48.0,23.0,-100.00,SSE,156,2.0,4.0,37,0.00,,,0.00,76.000000,,2013-10-15 01:42:00,
2013-10-14 18:51:00,43.0,21.0,-100.00,SE,131,4.0,5.0,41,0.00,,,0.00,13.000000,,2013-10-15 01:51:00,
2013-10-14 19:22:00,43.0,21.0,-100.00,SE,131,4.0,5.0,41,0.00,,,0.00,13.000000,,2013-10-15 02:22:00,
2013-10-14 19:32:00,43.0,21.0,-100.00,SE,131,4.0,5.0,41,0.00,,,0.00,13.000000,,2013-10-15 02:32:00,
2013-10-14 19:42:00,43.0,21.0,-100.00,SE,131,4.0,5.0,41,0.00,,,0.00,13.000000,,2013-10-15 02:42:00,
2013-10-14 20:23:00,43.0,24.0,-100.00,SE,141,3.0,8.0,47,0.00,,,0.00,0.000000,,2013-10-15 03:23:00,
2013-10-14 20:34:00,43.0,24.0,-100.00,SE,141,3.0,8.0,47,0.00,,,0.00,0.000000,,2013-10-15 03:34:00,
2013-10-14 20:51:00,42.0,22.0,-100.00,ESE,121,3.0,5.0,45,-99.99,,,0.00,0.000000,,2013-10-15 03:51:00,
2013-10-14 21:24:00,42.0,22.0,-100.00,ESE,121,3.0,5.0,45,-99.99,,,0.00,0.000000,,2013-10-15 04:24:00,
2013-10-14 21:34:00,42.0,22.0,-100.00,ESE,121,3.0,5.0,45,-99.99,,,0.00,0.000000,,2013-10-15 04:34:00,
2013-10-14 21:43:00,42.0,22.0,-100.00,ESE,121,3.0,5.0,45,-99.99,,,0.00,0.000000,,2013-10-15 04:43:00,
2013-10-14 21:51:00,42.0,20.0,-100.00,East,99,0.0,7.0,41,0.00,,,0.00,0.000000,,2013-10-15 04:51:00,
2013-10-14 22:22:00,42.0,20.0,-100.00,East,99,0.0,7.0,41,0.00,,,0.00,0.000000,,2013-10-15 05:22:00,
2013-10-14 22:34:00,42.0,20.0,-100.00,East,99,0.0,7.0,41,0.00,,,0.00,0.000000,,2013-10-15 05:34:00,
2013-10-14 22:42:00,42.0,20.0,-100.00,East,99,0.0,7.0,41,0.00,,,0.00,0.000000,,2013-10-15 05:42:00,
2013-10-14 23:22:00,41.0,19.0,-100.00,ESE,105,0.0,7.0,41,0.00,,,0.00,0.000000,,2013-10-15 06:22:00,
2013-10-14 23:32:00,41.0,19.0,-100.00,ESE,105,0.0,7.0,41,0.00,,,0.00,0.000000,,2013-10-15 06:32:00,
2013-10-14 23:43:00,41.0,19.0,-100.00,ESE,105,0.0,7.0,41,0.00,,,0.00,0.000000,,2013-10-15 06:43:00,
2013-10-14 23:51:00,39.0,19.0,-100.00,ENE,60,0.0,6.0,44,-99.99,,,0.00,0.000000,,2013-10-15 06:51:00,